MI55 weather

Public forecast

Using degrees Fahrenheit for public forecast. Weather courtesy of forecast.io.

Closest aviation weather report (METAR) to Zeitler Airport

Closest report is Jack Barstow Airport, 11.4 nm (21.1 km) NNE. Retrieved 2020/08/09 14:15 UTC (0 seconds ago):

KIKW 091415Z AUTO 28006KT 10SM CLR 26/22 A3005 RMK AO2 T02580216

Closest aviation forecast (TAF) to Zeitler Airport

Closest forecast is MBS International Airport, 12.7 nm (23.5 km) ENE. Retrieved 2020/08/09 12:36 UTC (2 hours ago):

TAF KMBS 091135Z 0912/1012 24010KT P6SM SCT045 SCT120 BKN250 TEMPO 0914/0916 4SM TSRA OVC030CB FM100100 21006KT P6SM FEW050 SCT150